Latest Coastal Weather Observations for Moorabbin Airport

IDV60701

Issued at 12:31 am EST Sunday 26 April 2015 (issued every 10 minutes, with the page automatically refreshed every 10 minutes)

About coastal observations | Map of coastal stations | Coastal observations for VIC | Marine services | Other Formats
Station Details ID: 086077 Name: MOORABBIN AIRPORT Lat: -37.98 Lon: 145.10 Height: 12.1 m
Data from the previous 72 hours. | See also: Recent months at Moorabbin Airport
Date/Time
EST
Temp

°C
Wind Pressure Rain
since 9am
mm
Weather Cloud Vis
km
Sea
Height
m
Swell
Dir
 
Speed
knots
Gust
knots
hPa Trend Height
m
Period
s
Dir
26/12:30am 13.0 SSW 13 18 1014.4 - 2.2 - Partly cloudy 10 - - - -
26/12:00am 12.7 SW 15 22 1014.0 - 2.2 - Cloudy 8 - - - -
 
Date/Time
EST
Temp

°C
Wind Pressure Rain
since 9am
mm
Weather Cloud Vis
km
Sea
Height
m
Swell
Dir
 
Speed
knots
Gust
knots
hPa Trend Height
m
Period
s
Dir
25/11:49pm 13.0 SW 15 25 1014.1 - 2.2 - Partly cloudy 10 - - - -
25/11:30pm 13.6 SW 17 23 1013.7 - 2.2 - Partly cloudy 10 - - - -
25/11:00pm 13.5 SW 17 28 1013.7 - 2.2 - Partly cloudy 10 - - - -
25/10:34pm 14.1 SSW 15 26 1013.3 - 2.2 - Partly cloudy 10 - - - -
25/10:30pm 14.1 SSW 15 24 1013.3 - 2.2 - Partly cloudy 10 - - - -
25/10:00pm 14.2 SSW 17 24 1013.3 - 2.2 - Partly cloudy 10 - - - -
25/09:30pm 14.2 SSW 17 24 1013.0 - 2.2 - Partly cloudy 10 - - - -
25/09:00pm 14.2 SSW 19 26 1012.7 - 2.2 - Cloudy 10 - - - -
25/08:30pm 14.4 SSW 16 23 1012.3 - 2.2 - Partly cloudy 10 - - - -
25/08:00pm 14.2 SSW 13 19 1012.0 - 2.2 - Partly cloudy 10 - - - -
25/07:40pm 13.9 SSW 9 14 1011.8 - 1.8 - Partly cloudy 7 - - - -
25/07:30pm 13.9 SSW 10 15 1011.8 - 1.6 - Partly cloudy 5 - - - -
25/07:23pm 14.0 SSW 11 16 1011.7 - 1.4 - Partly cloudy 5 - - - -
25/07:00pm 14.5 SSW 10 16 1011.4 - 1.2 - Partly cloudy 10 - - - -
25/06:30pm 14.3 SSW 6 9 1011.1 - 1.2 - Partly cloudy 10 - - - -
25/06:00pm 14.6 SSW 10 15 1010.6 - 1.2 Recent precip. Cloudy 10 - - - -
25/05:30pm 14.4 SSW 9 13 1010.1 - 1.2 - Partly cloudy 10 - - - -
25/05:00pm 14.3 SSW 10 15 1009.9 - 1.0 - Partly cloudy 9 - - - -
25/04:30pm 14.6 SW 7 9 1009.6 - 0.6 - Partly cloudy 10 - - - -
25/04:00pm 14.7 S 9 11 1009.4 - 0.6 - Partly cloudy 10 - - - -
25/03:30pm 15.1 SSW 10 14 1009.1 - 0.6 - Partly cloudy 10 - - - -
25/03:14pm 15.5 SSW 8 11 1008.9 - 0.6 - Partly cloudy 10 - - - -
25/03:00pm 15.1 WSW 6 10 1008.7 - 0.6 - Cloudy 10 - - - -
25/02:30pm 14.4 WNW 6 9 1008.6 - 0.6 - Cloudy 10 - - - -
25/02:00pm 14.1 WNW 6 8 1008.5 - 0.6 - Cloudy 10 - - - -
25/01:30pm 13.9 NW 7 9 1008.5 - 0.6 - Cloudy 10 - - - -
25/01:00pm 13.4 NW 7 9 1008.5 - 0.6 - Partly cloudy 10 - - - -
25/12:54pm 13.3 NW 7 9 1008.5 - 0.6 - Partly cloudy 10 - - - -
25/12:30pm 13.1 NNW 6 8 1008.6 - 0.6 - Partly cloudy 10 - - - -
25/12:22pm 12.9 NNW 6 9 1008.7 - 0.6 - Partly cloudy 10 - - - -
25/12:00pm 12.7 NW 7 10 1008.9 - 0.4 Recent precip. Cloudy 10 - - - -
25/11:55am 12.6 NW 7 9 1009.0 - 0.4 - Partly cloudy 10 - - - -
25/11:30am 12.6 NNW 7 8 1008.9 - 0.2 - Cloudy 10 - - - -
25/11:05am 12.6 NNW 7 9 1009.0 - 0.2 - Partly cloudy 10 - - - -
25/11:00am 12.4 NW 8 11 1009.0 - 0.2 - Partly cloudy 10 - - - -
25/10:30am 12.7 NW 7 11 1008.9 - 0.2 - Partly cloudy 10 - - - -
25/10:00am 12.6 NNW 6 7 1008.8 - 0.2 - Partly cloudy 8 - - - -
25/09:52am 12.6 N 6 8 1009.0 - 0.0 - Partly cloudy 10 - - - -
25/09:30am 12.4 N 5 6 1008.8 - 0.0 - Partly cloudy 10 - - - -
25/09:00am 12.5 NNE 6 7 1008.6 - 6.6 - Cloudy 10 - - - -
25/08:30am 12.5 WNW 1 3 1008.1 - 6.6 - Partly cloudy 10 - - - -
25/08:00am 12.3 NW 3 5 1007.8 - 6.6 - Partly cloudy 10 - - - -
25/07:30am 12.3 NNW 6 8 1007.7 - 6.6 - Cloudy 10 - - - -
25/07:00am 12.4 NW 6 8 1007.5 - 6.6 - Partly cloudy 10 - - - -
25/06:30am 12.7 W 6 10 1007.2 - 6.6 - Cloudy 10 - - - -
25/06:00am 12.7 W 7 11 1006.7 - 6.6 - Cloudy 10 - - - -
25/05:30am 12.5 W 9 11 1006.3 - 6.6 - Cloudy 10 - - - -
25/05:00am 12.5 W 7 9 1006.4 - 6.6 - Cloudy 10 - - - -
25/04:56am 12.6 W 7 10 1006.4 - 6.6 - Cloudy 10 - - - -
25/04:30am 12.7 W 6 8 1006.2 - 6.6 - Cloudy 10 - - - -
25/04:00am 12.8 W 5 7 1006.1 - 6.6 - Cloudy 10 - - - -
25/03:38am 12.9 WNW 2 4 1006.0 - 6.6 - Partly cloudy 10 - - - -
25/03:30am 12.9 CALM 0 1 1005.9 - 6.6 - Partly cloudy 10 - - - -
25/03:00am 13.0 NNE 4 4 1005.9 - 6.6 - Cloudy 10 - - - -
25/02:30am 13.1 NNW 1 4 1006.1 - 6.6 - Cloudy 10 - - - -
25/02:00am 13.1 CALM 0 0 1006.2 - 6.6 - Cloudy 10 - - - -
25/01:30am 13.3 NW 3 4 1006.4 - 6.6 - Partly cloudy 10 - - - -
25/01:00am 13.4 NW 3 5 1006.5 - 6.6 - Cloudy 10 - - - -
25/12:30am 13.4 NW 4 5 1006.5 - 6.6 - Partly cloudy 10 - - - -
25/12:06am 13.4 NW 3 4 1006.4 - 6.6 - Cloudy 10 - - - -
25/12:00am 13.5 WNW 3 4 1006.4 - 6.6 Rain Mostly cloudy 10 - - - -
 
Date/Time
EST
Temp

°C
Wind Pressure Rain
since 9am
mm
Weather Cloud Vis
km
Sea
Height
m
Swell
Dir
 
Speed
knots
Gust
knots
hPa Trend Height
m
Period
s
Dir
24/11:30pm 13.6 NNW 4 6 1006.5 - 6.4 - Partly cloudy 10 - - - -
24/11:17pm 13.5 WNW 4 6 1006.4 - 6.4 - Partly cloudy 10 - - - -
24/11:00pm 13.5 WSW 6 8 1006.1 - 6.4 - Partly cloudy 10 - - - -
24/10:30pm 13.5 WSW 7 11 1006.2 - 6.4 - Partly cloudy 10 - - - -
24/10:25pm 13.4 W 7 13 1006.2 - 6.4 - Partly cloudy 10 - - - -
24/10:00pm 14.0 W 15 21 1005.9 - 4.8 - Partly cloudy 2 - - - -
24/09:55pm 14.4 NW 12 21 1005.8 - 2.2 - Partly cloudy 5 - - - -
24/09:30pm 14.6 CALM 0 0 1005.3 - 1.2 - Partly cloudy 8 - - - -
24/09:03pm 14.8 CALM 0 0 1005.1 - 1.2 - Cloudy 7 - - - -
24/09:00pm 14.9 CALM 0 0 1005.1 - 1.2 - Cloudy 6 - - - -
24/08:46pm 14.9 CALM 0 0 1005.0 - 1.2 - Cloudy 5 - - - -
24/08:30pm 14.9 CALM 0 0 1004.9 - 1.2 - Cloudy 7 - - - -
24/08:00pm 15.1 NNE 5 5 1004.8 - 1.2 - Partly cloudy 10 - - - -
24/07:37pm 15.7 NNW 2 4 1004.8 - 1.2 - Partly cloudy 10 - - - -
24/07:30pm 15.5 SSW 2 5 1004.8 - 1.2 - Partly cloudy 9 - - - -
24/07:15pm 16.4 WNW 3 6 1004.9 - 0.6 - Partly cloudy 5 - - - -
24/07:00pm 16.5 N 1 3 1004.6 - 0.0 - Partly cloudy 10 - - - -
24/06:30pm 16.5 N 1 3 1004.3 - 0.0 - Partly cloudy 10 - - - -
24/06:00pm 16.4 CALM 0 0 1004.0 - 0.0 - Cloudy 10 - - - -
24/05:30pm 16.8 WSW 4 6 1003.6 - 0.0 - Partly cloudy 10 - - - -
24/05:00pm 17.4 WSW 7 10 1003.4 - 0.0 - Partly cloudy 10 - - - -
24/04:30pm 17.4 SW 6 8 1003.0 - 0.0 - Partly cloudy 10 - - - -
24/04:00pm 17.8 SW 8 12 1002.8 - 0.0 - - 10 - - - -
24/03:30pm 17.6 SW 7 11 1003.0 - 0.0 - Partly cloudy 10 - - - -
24/03:00pm 17.3 SW 9 13 1003.1 - 0.0 - Mostly cloudy 10 - - - -
24/02:30pm 17.2 SW 9 12 1003.1 - 0.0 - Partly cloudy 10 - - - -
24/02:00pm 17.6 SW 9 12 1003.0 - 0.0 - Partly cloudy 10 - - - -
24/01:30pm 19.1 WSW 6 9 1003.1 - 0.0 - Partly cloudy 10 - - - -
24/01:00pm 19.2 NW 7 10 1003.4 - 0.0 - Partly cloudy 10 - - - -
24/12:30pm 18.9 NW 8 12 1003.7 - 0.0 - Partly cloudy 10 - - - -
24/12:00pm 19.0 NW 9 13 1004.1 - 0.0 - Mostly cloudy 10 - - - -
24/11:30am 18.3 NW 7 11 1004.7 - 0.0 - - 10 - - - -
24/11:00am 18.1 NW 7 11 1004.7 - 0.0 - - 10 - - - -
24/10:30am 16.6 WNW 7 9 1005.0 - 0.0 - - 10 - - - -
24/10:00am 16.4 WNW 6 9 1005.3 - 0.0 - - 10 - - - -
24/09:30am 16.0 NW 6 8 1005.4 - 0.0 - - 10 - - - -
24/09:00am 15.7 NNW 6 7 1005.4 - 0.0 - Cloudy 10 - - - -
24/08:30am 15.2 NNW 5 8 1005.3 - 0.0 - Partly cloudy 10 - - - -
24/08:00am 14.8 N 5 7 1005.5 - 0.0 - Partly cloudy 10 - - - -
24/07:30am 14.3 NNW 3 5 1005.2 - 0.0 - - 10 - - - -
24/07:00am 14.5 N 5 6 1005.0 - 0.0 - Partly cloudy 9 - - - -
24/06:58am 14.5 N 5 6 1005.0 - 0.0 - Partly cloudy 9 - - - -
24/06:30am 14.6 NW 5 7 1004.9 - 0.0 - Cloudy 8 - - - -
24/06:00am 14.4 NNW 3 4 1004.8 - 0.0 - Cloudy 7 - - - -
24/05:54am 14.3 N 3 4 1004.8 - 0.0 - Partly cloudy 7 - - - -
24/05:30am 14.5 N 3 4 1005.0 - 0.0 - Cloudy 7 - - - -
24/05:22am 14.5 NNW 2 4 1005.1 - 0.0 - Partly cloudy 6 - - - -
24/05:00am 14.2 N 4 5 1005.1 - 0.0 - Partly cloudy 5 - - - -
24/04:54am 14.5 N 2 4 1005.1 - 0.0 - Partly cloudy 5 - - - -
24/04:30am 15.0 CALM 0 3 1005.2 - 0.0 - Partly cloudy 7 - - - -
24/04:28am 15.0 NNW 1 3 1005.2 - 0.0 - Partly cloudy 7 - - - -
24/04:00am 15.2 NW 5 7 1005.7 - 0.0 - Cloudy 7 - - - -
24/03:30am 15.2 NW 5 8 1005.9 - 0.0 - Cloudy 7 - - - -
24/03:00am 15.1 NW 6 9 1006.2 - 0.0 - Cloudy 8 - - - -
24/02:30am 14.7 NNW 5 6 1006.8 - 0.0 - Partly cloudy 10 - - - -
24/02:18am 14.4 N 4 5 1006.7 - 0.0 - Partly cloudy 10 - - - -
24/02:00am 14.2 N 3 4 1006.9 - 0.0 - Partly cloudy 10 - - - -
24/01:30am 14.1 N 1 4 1007.3 - 0.0 - Partly cloudy 10 - - - -
24/01:00am 14.1 CALM 0 0 1007.5 - 0.0 - Cloudy 10 - - - -
24/12:30am 14.2 CALM 0 0 1008.0 - 0.0 - Cloudy 10 - - - -
24/12:00am 14.5 N 1 3 1008.4 - 0.0 - Cloudy 10 - - - -
 
Date/Time
EST
Temp

°C
Wind Pressure Rain
since 9am
mm
Weather Cloud Vis
km
Sea
Height
m
Swell
Dir
 
Speed
knots
Gust
knots
hPa Trend Height
m
Period
s
Dir
23/11:30pm 14.4 CALM 0 2 1008.7 - 0.0 - Partly cloudy 10 - - - -
23/11:00pm 14.4 ESE 2 4 1009.1 - 0.0 - - 10 - - - -
23/10:30pm 14.4 SSE 3 4 1009.5 - 0.0 - Partly cloudy 10 - - - -
23/10:00pm 14.7 SE 4 5 1009.9 - 0.0 - Partly cloudy 10 - - - -
23/09:30pm 15.0 SE 4 6 1010.4 - 0.0 - - 10 - - - -
23/09:00pm 15.4 SE 7 8 1010.5 - 0.0 - Cloudy 10 - - - -
23/08:30pm 15.8 SSE 9 11 1010.7 - 0.0 - Cloudy 10 - - - -
23/08:00pm 16.1 SSE 8 11 1011.1 - 0.0 - Partly cloudy 10 - - - -
23/07:30pm 16.4 SSE 8 11 1011.4 - 0.0 - Partly cloudy 10 - - - -
23/07:00pm 16.5 SSE 8 11 1011.7 - 0.0 - Cloudy 10 - - - -
23/06:30pm 16.8 SSE 10 13 1011.9 - 0.0 - Partly cloudy 10 - - - -
23/06:00pm 17.1 SSE 9 13 1011.9 - 0.0 - Cloudy 10 - - - -
23/05:30pm 17.5 SSE 10 13 1012.0 - 0.0 - Partly cloudy 10 - - - -
23/05:00pm 17.8 SSE 9 12 1011.9 - 0.0 - Partly cloudy 10 - - - -
23/04:30pm 17.9 SSE 10 12 1012.0 - 0.0 - Cloudy 10 - - - -
23/04:00pm 18.2 SSE 12 15 1012.1 - 0.0 - Cloudy 10 - - - -
23/03:30pm 18.5 SSE 10 15 1012.4 - 0.0 - Cloudy 10 - - - -
23/03:00pm 18.3 SSE 11 15 1012.9 - 0.0 - Cloudy 10 - - - -
23/02:30pm 18.1 SE 13 17 1013.2 - 0.0 - Cloudy 10 - - - -
23/02:00pm 18.2 SE 11 14 1013.6 - 0.0 - Partly cloudy 10 - - - -
23/01:30pm 18.3 SE 12 16 1014.1 - 0.0 - Cloudy 10 - - - -
23/01:00pm 18.2 SE 13 16 1014.6 - 0.0 - Cloudy 10 - - - -
23/12:30pm 18.2 SE 13 16 1015.2 - 0.0 - Cloudy 10 - - - -
23/12:00pm 17.6 SE 11 15 1016.1 - 0.0 - Cloudy 10 - - - -
23/11:30am 17.4 SE 11 13 1016.9 - 0.0 - Cloudy 10 - - - -
23/11:00am 16.7 SE 11 15 1017.6 - 0.0 - Cloudy 10 - - - -
23/10:30am 17.0 SSE 11 15 1017.8 - 0.0 - Cloudy 10 - - - -
23/10:00am 16.9 SE 10 13 1018.0 - 0.0 - Cloudy 10 - - - -
23/09:30am 16.1 SE 11 15 1018.3 - 0.0 - Partly cloudy 10 - - - -
23/09:00am 15.4 SE 10 15 1018.6 - 0.0 - Partly cloudy 10 - - - -
23/08:30am 14.3 SSE 8 11 1018.8 - 0.0 - Cloudy 10 - - - -
23/08:00am 13.6 SE 8 10 1018.8 - 0.0 - Partly cloudy 10 - - - -
23/07:30am 12.9 SSE 8 11 1018.7 - 0.0 - Partly cloudy 10 - - - -
23/07:00am 12.9 SE 9 11 1018.6 - 0.0 - Cloudy 10 - - - -
23/06:30am 12.4 SE 4 6 1019.0 - 0.0 - Partly cloudy 10 - - - -
23/06:00am 12.1 SSE 4 5 1019.0 - 0.0 - Mostly clear 10 - - - -
23/05:30am 12.6 SSE 5 8 1019.2 - 0.0 - Partly cloudy 10 - - - -
23/05:00am 12.4 S 5 7 1019.2 - 0.0 - Partly cloudy 10 - - - -
23/04:30am 12.0 SSE 6 7 1019.2 - 0.0 - Partly cloudy 10 - - - -
23/04:00am 12.2 SE 6 8 1019.2 - 0.0 - Partly cloudy 10 - - - -
23/03:30am 12.5 SSE 9 11 1019.3 - 0.0 - - 10 - - - -
23/03:00am 12.9 SSE 8 10 1019.6 - 0.0 - Mostly clear 10 - - - -
23/02:30am 13.3 SSE 6 7 1020.1 - 0.0 - Cloudy 10 - - - -
23/02:00am 12.9 SSE 5 8 1020.3 - 0.0 - Partly cloudy 10 - - - -
23/01:30am 13.1 SSE 7 8 1020.4 - 0.0 - Partly cloudy 10 - - - -
23/01:00am 13.7 SSE 8 11 1020.4 - 0.0 - Partly cloudy 10 - - - -

Other Formats:

Comma delimited format used in spreadsheet applications
http://www.bom.gov.au/fwo/IDV60701/IDV60701.94870.axf

JavaScript Object Notation format (JSON) in row-major order
http://www.bom.gov.au/fwo/IDV60701/IDV60701.94870.json